sensor_id;sensor_type;location;lat;lon;timestamp;temperature;humidity
76878;DHT22;65843;50.692;12.844;2023-04-01T00:00:45;19.80;59.80
76878;DHT22;65843;50.692;12.844;2023-04-01T00:01:46;19.90;61.40
76878;DHT22;65843;50.692;12.844;2023-04-01T00:02:47;19.80;61.70
76878;DHT22;65843;50.692;12.844;2023-04-01T00:03:48;19.90;61.60
76878;DHT22;65843;50.692;12.844;2023-04-01T00:04:49;19.90;61.50
76878;DHT22;65843;50.692;12.844;2023-04-01T00:05:50;19.90;61.60
76878;DHT22;65843;50.692;12.844;2023-04-01T00:06:51;19.90;61.50
76878;DHT22;65843;50.692;12.844;2023-04-01T00:07:52;19.90;61.50
76878;DHT22;65843;50.692;12.844;2023-04-01T00:08:53;19.90;61.50
76878;DHT22;65843;50.692;12.844;2023-04-01T00:09:54;19.90;61.60
76878;DHT22;65843;50.692;12.844;2023-04-01T00:10:55;19.90;61.60
76878;DHT22;65843;50.692;12.844;2023-04-01T00:11:57;19.90;61.50
76878;DHT22;65843;50.692;12.844;2023-04-01T00:12:58;19.90;61.80
76878;DHT22;65843;50.692;12.844;2023-04-01T00:13:59;20.00;61.70
76878;DHT22;65843;50.692;12.844;2023-04-01T00:15:00;19.90;61.90
76878;DHT22;65843;50.692;12.844;2023-04-01T00:16:01;19.90;61.80
76878;DHT22;65843;50.692;12.844;2023-04-01T00:17:03;19.90;61.90
76878;DHT22;65843;50.692;12.844;2023-04-01T00:18:04;20.00;61.90
76878;DHT22;65843;50.692;12.844;2023-04-01T00:19:05;20.00;61.90
76878;DHT22;65843;50.692;12.844;2023-04-01T00:20:07;20.00;61.90
76878;DHT22;65843;50.692;12.844;2023-04-01T00:21:09;20.00;61.90
76878;DHT22;65843;50.692;12.844;2023-04-01T00:22:10;20.00;61.80
76878;DHT22;65843;50.692;12.844;2023-04-01T00:23:12;19.90;61.70
76878;DHT22;65843;50.692;12.844;2023-04-01T00:24:13;20.00;61.70
76878;DHT22;65843;50.692;12.844;2023-04-01T00:25:14;20.00;61.80
76878;DHT22;65843;50.692;12.844;2023-04-01T00:26:15;20.00;61.60
76878;DHT22;65843;50.692;12.844;2023-04-01T00:27:19;20.00;61.80
76878;DHT22;65843;50.692;12.844;2023-04-01T00:28:20;20.00;61.90
76878;DHT22;65843;50.692;12.844;2023-04-01T00:29:21;20.00;61.60
76878;DHT22;65843;50.692;12.844;2023-04-01T00:30:24;20.00;61.60
76878;DHT22;65843;50.692;12.844;2023-04-01T00:31:25;20.00;61.80
76878;DHT22;65843;50.692;12.844;2023-04-01T00:32:26;20.00;61.70
76878;DHT22;65843;50.692;12.844;2023-04-01T00:33:27;20.00;61.30
76878;DHT22;65843;50.692;12.844;2023-04-01T00:34:28;20.00;61.30
76878;DHT22;65843;50.692;12.844;2023-04-01T00:35:29;20.00;61.30
76878;DHT22;65843;50.692;12.844;2023-04-01T00:36:30;20.00;61.30
76878;DHT22;65843;50.692;12.844;2023-04-01T00:37:31;20.00;61.50
76878;DHT22;65843;50.692;12.844;2023-04-01T00:38:35;20.00;61.40
76878;DHT22;65843;50.692;12.844;2023-04-01T00:39:36;20.10;61.50
76878;DHT22;65843;50.692;12.844;2023-04-01T00:40:42;20.10;61.40
76878;DHT22;65843;50.692;12.844;2023-04-01T00:41:43;20.10;61.30
76878;DHT22;65843;50.692;12.844;2023-04-01T00:42:44;20.10;61.30
76878;DHT22;65843;50.692;12.844;2023-04-01T00:43:46;20.10;61.20
76878;DHT22;65843;50.692;12.844;2023-04-01T00:44:53;20.10;61.10
76878;DHT22;65843;50.692;12.844;2023-04-01T00:45:54;20.00;61.20
76878;DHT22;65843;50.692;12.844;2023-04-01T00:46:55;20.00;61.10
76878;DHT22;65843;50.692;12.844;2023-04-01T00:47:56;20.00;61.20
76878;DHT22;65843;50.692;12.844;2023-04-01T00:48:59;20.00;61.20
76878;DHT22;65843;50.692;12.844;2023-04-01T00:50:01;20.00;61.10
76878;DHT22;65843;50.692;12.844;2023-04-01T00:51:04;20.00;61.10
76878;DHT22;65843;50.692;12.844;2023-04-01T00:52:07;20.00;61.00
76878;DHT22;65843;50.692;12.844;2023-04-01T00:53:08;20.00;61.00
76878;DHT22;65843;50.692;12.844;2023-04-01T00:54:10;20.00;60.90
76878;DHT22;65843;50.692;12.844;2023-04-01T00:55:11;20.00;61.10
76878;DHT22;65843;50.692;12.844;2023-04-01T00:56:35;20.00;61.00
76878;DHT22;65843;50.692;12.844;2023-04-01T00:57:35;20.00;61.10
76878;DHT22;65843;50.692;12.844;2023-04-01T00:58:38;20.00;61.00
76878;DHT22;65843;50.692;12.844;2023-04-01T00:59:42;20.00;61.10
76878;DHT22;65843;50.692;12.844;2023-04-01T01:00:44;20.00;61.10
76878;DHT22;65843;50.692;12.844;2023-04-01T01:01:46;20.00;61.10
76878;DHT22;65843;50.692;12.844;2023-04-01T01:02:47;20.00;61.40
76878;DHT22;65843;50.692;12.844;2023-04-01T01:03:50;20.00;61.30
76878;DHT22;65843;50.692;12.844;2023-04-01T01:04:50;20.00;61.20
76878;DHT22;65843;50.692;12.844;2023-04-01T01:11:08;20.00;61.60
76878;DHT22;65843;50.692;12.844;2023-04-01T01:12:13;20.00;61.60
76878;DHT22;65843;50.692;12.844;2023-04-01T01:14:19;20.00;61.70
76878;DHT22;65843;50.692;12.844;2023-04-01T01:15:31;20.00;62.00
76878;DHT22;65843;50.692;12.844;2023-04-01T01:16:36;20.10;61.90
76878;DHT22;65843;50.692;12.844;2023-04-01T01:18:55;20.10;61.80
76878;DHT22;65843;50.692;12.844;2023-04-01T01:21:11;20.10;62.00
76878;DHT22;65843;50.692;12.844;2023-04-01T01:30:25;20.10;62.30
76878;DHT22;65843;50.692;12.844;2023-04-01T01:36:16;20.20;62.10
76878;DHT22;65843;50.692;12.844;2023-04-01T01:37:20;20.20;61.90
76878;DHT22;65843;50.692;12.844;2023-04-01T01:38:23;20.20;61.90
76878;DHT22;65843;50.692;12.844;2023-04-01T01:39:26;20.20;61.80
76878;DHT22;65843;50.692;12.844;2023-04-01T01:40:28;20.20;61.80
76878;DHT22;65843;50.692;12.844;2023-04-01T01:41:30;20.20;61.70
76878;DHT22;65843;50.692;12.844;2023-04-01T01:42:33;20.20;61.80
76878;DHT22;65843;50.692;12.844;2023-04-01T01:43:37;20.20;61.70
76878;DHT22;65843;50.692;12.844;2023-04-01T01:44:39;20.20;61.60
76878;DHT22;65843;50.692;12.844;2023-04-01T01:45:45;20.10;61.60
76878;DHT22;65843;50.692;12.844;2023-04-01T01:46:47;20.10;61.50
76878;DHT22;65843;50.692;12.844;2023-04-01T01:47:48;20.20;61.60
76878;DHT22;65843;50.692;12.844;2023-04-01T01:48:49;20.10;61.80
76878;DHT22;65843;50.692;12.844;2023-04-01T01:49:51;20.10;61.70
76878;DHT22;65843;50.692;12.844;2023-04-01T01:50:53;20.10;61.70
76878;DHT22;65843;50.692;12.844;2023-04-01T01:51:54;20.10;61.70
76878;DHT22;65843;50.692;12.844;2023-04-01T01:53:02;20.10;61.70
76878;DHT22;65843;50.692;12.844;2023-04-01T01:54:04;20.10;61.70
76878;DHT22;65843;50.692;12.844;2023-04-01T01:56:25;20.10;61.70
76878;DHT22;65843;50.692;12.844;2023-04-01T01:57:29;20.10;61.70
76878;DHT22;65843;50.692;12.844;2023-04-01T01:59:32;20.10;61.70
76878;DHT22;65843;50.692;12.844;2023-04-01T02:00:34;20.10;61.60
76878;DHT22;65843;50.692;12.844;2023-04-01T02:01:37;20.10;61.50
76878;DHT22;65843;50.692;12.844;2023-04-01T02:02:43;20.10;61.50
76878;DHT22;65843;50.692;12.844;2023-04-01T02:03:45;20.10;61.50
76878;DHT22;65843;50.692;12.844;2023-04-01T02:04:47;20.10;61.50
76878;DHT22;65843;50.692;12.844;2023-04-01T02:05:48;20.10;61.50
76878;DHT22;65843;50.692;12.844;2023-04-01T02:06:55;20.10;61.60
76878;DHT22;65843;50.692;12.844;2023-04-01T02:08:09;20.10;62.20
76878;DHT22;65843;50.692;12.844;2023-04-01T02:09:12;20.20;61.80
76878;DHT22;65843;50.692;12.844;2023-04-01T02:10:13;20.20;62.40
76878;DHT22;65843;50.692;12.844;2023-04-01T02:11:16;20.20;62.00
76878;DHT22;65843;50.692;12.844;2023-04-01T02:12:19;20.20;62.10
76878;DHT22;65843;50.692;12.844;2023-04-01T02:13:24;20.20;61.90
76878;DHT22;65843;50.692;12.844;2023-04-01T02:14:46;20.30;61.90
76878;DHT22;65843;50.692;12.844;2023-04-01T02:15:49;20.30;61.80
76878;DHT22;65843;50.692;12.844;2023-04-01T02:17:02;20.30;61.80
76878;DHT22;65843;50.692;12.844;2023-04-01T02:18:04;20.30;61.70
76878;DHT22;65843;50.692;12.844;2023-04-01T02:19:05;20.30;61.80
76878;DHT22;65843;50.692;12.844;2023-04-01T02:20:17;20.30;61.70
76878;DHT22;65843;50.692;12.844;2023-04-01T02:21:20;20.30;61.70
76878;DHT22;65843;50.692;12.844;2023-04-01T02:22:23;20.30;61.60
76878;DHT22;65843;50.692;12.844;2023-04-01T02:23:25;20.30;61.60
76878;DHT22;65843;50.692;12.844;2023-04-01T02:24:28;20.30;61.60
76878;DHT22;65843;50.692;12.844;2023-04-01T02:25:30;20.30;61.50
76878;DHT22;65843;50.692;12.844;2023-04-01T02:26:34;20.30;61.60
76878;DHT22;65843;50.692;12.844;2023-04-01T02:27:35;20.30;61.50
76878;DHT22;65843;50.692;12.844;2023-04-01T02:28:36;20.30;62.00
76878;DHT22;65843;50.692;12.844;2023-04-01T02:29:38;20.30;61.90
76878;DHT22;65843;50.692;12.844;2023-04-01T02:30:39;20.30;61.70
76878;DHT22;65843;50.692;12.844;2023-04-01T02:31:41;20.30;61.80
76878;DHT22;65843;50.692;12.844;2023-04-01T02:32:43;20.30;61.90
76878;DHT22;65843;50.692;12.844;2023-04-01T02:33:44;20.30;61.80
76878;DHT22;65843;50.692;12.844;2023-04-01T02:34:46;20.30;61.70
76878;DHT22;65843;50.692;12.844;2023-04-01T02:35:47;20.30;61.70
76878;DHT22;65843;50.692;12.844;2023-04-01T02:36:49;20.30;61.70
76878;DHT22;65843;50.692;12.844;2023-04-01T02:37:50;20.30;61.90
76878;DHT22;65843;50.692;12.844;2023-04-01T02:38:52;20.30;62.00
76878;DHT22;65843;50.692;12.844;2023-04-01T02:39:58;20.30;62.00
76878;DHT22;65843;50.692;12.844;2023-04-01T02:41:00;20.30;61.90
76878;DHT22;65843;50.692;12.844;2023-04-01T02:42:01;20.30;62.00
76878;DHT22;65843;50.692;12.844;2023-04-01T02:43:02;20.30;62.00
76878;DHT22;65843;50.692;12.844;2023-04-01T02:44:03;20.30;62.00
76878;DHT22;65843;50.692;12.844;2023-04-01T02:45:04;20.30;61.90
76878;DHT22;65843;50.692;12.844;2023-04-01T02:46:05;20.30;62.00
76878;DHT22;65843;50.692;12.844;2023-04-01T02:47:06;20.20;61.90
76878;DHT22;65843;50.692;12.844;2023-04-01T02:48:07;20.20;62.00
76878;DHT22;65843;50.692;12.844;2023-04-01T02:49:08;20.30;62.00
76878;DHT22;65843;50.692;12.844;2023-04-01T02:50:09;20.20;61.90
76878;DHT22;65843;50.692;12.844;2023-04-01T02:51:10;20.20;62.00
76878;DHT22;65843;50.692;12.844;2023-04-01T02:52:11;20.20;61.90
76878;DHT22;65843;50.692;12.844;2023-04-01T02:53:12;20.20;62.00
76878;DHT22;65843;50.692;12.844;2023-04-01T02:54:13;20.20;61.90
76878;DHT22;65843;50.692;12.844;2023-04-01T02:55:14;20.20;61.90
76878;DHT22;65843;50.692;12.844;2023-04-01T02:56:15;20.20;62.00
76878;DHT22;65843;50.692;12.844;2023-04-01T02:57:16;20.20;62.00
76878;DHT22;65843;50.692;12.844;2023-04-01T02:58:17;20.20;62.00
76878;DHT22;65843;50.692;12.844;2023-04-01T02:59:18;20.20;62.00
76878;DHT22;65843;50.692;12.844;2023-04-01T03:00:18;20.20;61.90
76878;DHT22;65843;50.692;12.844;2023-04-01T03:01:20;20.20;61.90
76878;DHT22;65843;50.692;12.844;2023-04-01T03:02:21;20.20;61.90
76878;DHT22;65843;50.692;12.844;2023-04-01T03:03:22;20.20;61.90
76878;DHT22;65843;50.692;12.844;2023-04-01T03:04:22;20.20;61.80
76878;DHT22;65843;50.692;12.844;2023-04-01T03:05:23;20.20;61.90
76878;DHT22;65843;50.692;12.844;2023-04-01T03:06:25;20.20;61.90
76878;DHT22;65843;50.692;12.844;2023-04-01T03:07:26;20.20;62.00
76878;DHT22;65843;50.692;12.844;2023-04-01T03:08:26;20.10;62.00
76878;DHT22;65843;50.692;12.844;2023-04-01T03:09:27;20.20;62.00
76878;DHT22;65843;50.692;12.844;2023-04-01T03:10:29;20.20;62.00
76878;DHT22;65843;50.692;12.844;2023-04-01T03:11:30;20.20;62.00
76878;DHT22;65843;50.692;12.844;2023-04-01T03:12:31;20.10;62.10
76878;DHT22;65843;50.692;12.844;2023-04-01T03:13:32;20.10;62.00
76878;DHT22;65843;50.692;12.844;2023-04-01T03:14:33;20.10;62.00
76878;DHT22;65843;50.692;12.844;2023-04-01T03:15:34;20.10;62.00
76878;DHT22;65843;50.692;12.844;2023-04-01T03:16:35;20.10;61.90
76878;DHT22;65843;50.692;12.844;2023-04-01T03:17:36;20.10;61.90
76878;DHT22;65843;50.692;12.844;2023-04-01T03:18:36;20.10;62.00
76878;DHT22;65843;50.692;12.844;2023-04-01T03:19:37;20.10;62.00
76878;DHT22;65843;50.692;12.844;2023-04-01T03:20:38;20.10;62.00
76878;DHT22;65843;50.692;12.844;2023-04-01T03:21:39;20.10;62.00
76878;DHT22;65843;50.692;12.844;2023-04-01T03:22:40;20.10;62.00
76878;DHT22;65843;50.692;12.844;2023-04-01T03:23:41;20.20;62.10
76878;DHT22;65843;50.692;12.844;2023-04-01T03:24:42;20.20;62.00
76878;DHT22;65843;50.692;12.844;2023-04-01T03:25:43;20.20;62.10
76878;DHT22;65843;50.692;12.844;2023-04-01T03:26:44;20.20;62.30
76878;DHT22;65843;50.692;12.844;2023-04-01T03:27:45;20.10;62.20
76878;DHT22;65843;50.692;12.844;2023-04-01T03:28:47;20.20;62.00
76878;DHT22;65843;50.692;12.844;2023-04-01T03:29:48;20.20;62.00
76878;DHT22;65843;50.692;12.844;2023-04-01T03:30:49;20.20;62.10
76878;DHT22;65843;50.692;12.844;2023-04-01T03:31:49;20.20;62.00
76878;DHT22;65843;50.692;12.844;2023-04-01T03:32:50;20.20;62.20
76878;DHT22;65843;50.692;12.844;2023-04-01T03:33:51;20.20;62.50
76878;DHT22;65843;50.692;12.844;2023-04-01T03:34:52;20.20;62.20
76878;DHT22;65843;50.692;12.844;2023-04-01T03:35:53;20.30;62.40
76878;DHT22;65843;50.692;12.844;2023-04-01T03:36:54;20.30;62.50
76878;DHT22;65843;50.692;12.844;2023-04-01T03:37:55;20.30;62.40
76878;DHT22;65843;50.692;12.844;2023-04-01T03:38:56;20.30;62.30
76878;DHT22;65843;50.692;12.844;2023-04-01T03:39:57;20.30;62.40
76878;DHT22;65843;50.692;12.844;2023-04-01T03:40:58;20.30;62.30
76878;DHT22;65843;50.692;12.844;2023-04-01T03:41:59;20.30;62.40
76878;DHT22;65843;50.692;12.844;2023-04-01T03:43:00;20.30;62.40
76878;DHT22;65843;50.692;12.844;2023-04-01T03:44:01;20.30;62.70
76878;DHT22;65843;50.692;12.844;2023-04-01T03:45:03;20.30;62.20
76878;DHT22;65843;50.692;12.844;2023-04-01T03:46:04;20.30;62.10
76878;DHT22;65843;50.692;12.844;2023-04-01T03:47:05;20.30;62.10
76878;DHT22;65843;50.692;12.844;2023-04-01T03:48:06;20.30;62.00
76878;DHT22;65843;50.692;12.844;2023-04-01T03:49:08;20.30;61.90
76878;DHT22;65843;50.692;12.844;2023-04-01T03:50:12;20.30;62.00
76878;DHT22;65843;50.692;12.844;2023-04-01T03:51:13;20.30;62.10
76878;DHT22;65843;50.692;12.844;2023-04-01T03:52:14;20.20;61.90
76878;DHT22;65843;50.692;12.844;2023-04-01T03:53:15;20.30;61.90
76878;DHT22;65843;50.692;12.844;2023-04-01T03:54:17;20.20;61.50
76878;DHT22;65843;50.692;12.844;2023-04-01T03:55:18;20.20;61.70
76878;DHT22;65843;50.692;12.844;2023-04-01T03:56:19;20.20;61.70
76878;DHT22;65843;50.692;12.844;2023-04-01T03:57:20;20.20;61.80
76878;DHT22;65843;50.692;12.844;2023-04-01T03:58:21;20.20;61.70
76878;DHT22;65843;50.692;12.844;2023-04-01T03:59:22;20.10;61.80
76878;DHT22;65843;50.692;12.844;2023-04-01T04:00:23;20.10;61.70
76878;DHT22;65843;50.692;12.844;2023-04-01T04:01:24;20.10;60.90
76878;DHT22;65843;50.692;12.844;2023-04-01T04:02:25;20.10;60.70
76878;DHT22;65843;50.692;12.844;2023-04-01T04:03:26;20.10;60.40
76878;DHT22;65843;50.692;12.844;2023-04-01T04:04:27;20.10;59.70
76878;DHT22;65843;50.692;12.844;2023-04-01T04:05:28;20.10;60.10
76878;DHT22;65843;50.692;12.844;2023-04-01T04:06:29;20.10;61.10
76878;DHT22;65843;50.692;12.844;2023-04-01T04:07:30;20.10;60.00
76878;DHT22;65843;50.692;12.844;2023-04-01T04:08:31;20.10;59.70
76878;DHT22;65843;50.692;12.844;2023-04-01T04:09:32;20.10;60.70
76878;DHT22;65843;50.692;12.844;2023-04-01T04:10:33;20.10;60.40
76878;DHT22;65843;50.692;12.844;2023-04-01T04:11:36;20.10;59.50
76878;DHT22;65843;50.692;12.844;2023-04-01T04:12:37;20.10;59.90
76878;DHT22;65843;50.692;12.844;2023-04-01T04:13:37;20.10;59.20
76878;DHT22;65843;50.692;12.844;2023-04-01T04:14:38;20.10;60.20
76878;DHT22;65843;50.692;12.844;2023-04-01T04:15:40;20.10;60.10
76878;DHT22;65843;50.692;12.844;2023-04-01T04:16:41;20.10;59.80
76878;DHT22;65843;50.692;12.844;2023-04-01T04:17:42;20.10;58.70
76878;DHT22;65843;50.692;12.844;2023-04-01T04:18:43;20.10;60.20
76878;DHT22;65843;50.692;12.844;2023-04-01T04:19:44;20.10;60.80
76878;DHT22;65843;50.692;12.844;2023-04-01T04:20:45;20.00;60.50
76878;DHT22;65843;50.692;12.844;2023-04-01T04:21:48;20.00;60.00
76878;DHT22;65843;50.692;12.844;2023-04-01T04:22:50;20.00;58.60
76878;DHT22;65843;50.692;12.844;2023-04-01T04:23:51;20.00;60.10
76878;DHT22;65843;50.692;12.844;2023-04-01T04:24:52;20.00;59.70
76878;DHT22;65843;50.692;12.844;2023-04-01T04:25:56;20.00;59.50
76878;DHT22;65843;50.692;12.844;2023-04-01T04:26:57;20.00;59.10
76878;DHT22;65843;50.692;12.844;2023-04-01T04:27:58;20.00;59.90
76878;DHT22;65843;50.692;12.844;2023-04-01T04:29:02;20.00;60.50
76878;DHT22;65843;50.692;12.844;2023-04-01T04:30:07;20.00;59.40
76878;DHT22;65843;50.692;12.844;2023-04-01T04:31:08;20.00;59.20
76878;DHT22;65843;50.692;12.844;2023-04-01T04:32:09;20.00;58.70
76878;DHT22;65843;50.692;12.844;2023-04-01T04:33:10;20.00;58.70
76878;DHT22;65843;50.692;12.844;2023-04-01T04:34:11;20.00;59.70
76878;DHT22;65843;50.692;12.844;2023-04-01T04:35:12;20.00;60.30
76878;DHT22;65843;50.692;12.844;2023-04-01T04:36:13;20.00;59.40
76878;DHT22;65843;50.692;12.844;2023-04-01T04:37:14;20.00;60.00
76878;DHT22;65843;50.692;12.844;2023-04-01T04:38:15;20.00;59.40
76878;DHT22;65843;50.692;12.844;2023-04-01T04:39:16;20.00;59.10
76878;DHT22;65843;50.692;12.844;2023-04-01T04:40:17;20.00;58.60
76878;DHT22;65843;50.692;12.844;2023-04-01T04:41:18;20.00;58.20
76878;DHT22;65843;50.692;12.844;2023-04-01T04:42:19;20.00;58.90
76878;DHT22;65843;50.692;12.844;2023-04-01T04:43:20;20.00;59.90
76878;DHT22;65843;50.692;12.844;2023-04-01T04:44:21;20.00;59.60
76878;DHT22;65843;50.692;12.844;2023-04-01T04:45:22;20.00;58.90
76878;DHT22;65843;50.692;12.844;2023-04-01T04:46:24;20.00;61.10
76878;DHT22;65843;50.692;12.844;2023-04-01T04:47:25;20.00;61.10
76878;DHT22;65843;50.692;12.844;2023-04-01T04:48:26;20.00;61.20
76878;DHT22;65843;50.692;12.844;2023-04-01T04:49:27;20.00;61.00
76878;DHT22;65843;50.692;12.844;2023-04-01T04:50:28;20.00;61.00
76878;DHT22;65843;50.692;12.844;2023-04-01T04:51:28;20.00;60.90
76878;DHT22;65843;50.692;12.844;2023-04-01T04:52:29;20.00;60.90
76878;DHT22;65843;50.692;12.844;2023-04-01T04:53:30;20.00;60.80
76878;DHT22;65843;50.692;12.844;2023-04-01T04:54:31;20.00;60.80
76878;DHT22;65843;50.692;12.844;2023-04-01T04:55:32;20.00;60.80
76878;DHT22;65843;50.692;12.844;2023-04-01T04:56:33;20.00;60.80
76878;DHT22;65843;50.692;12.844;2023-04-01T04:57:34;20.00;60.70
76878;DHT22;65843;50.692;12.844;2023-04-01T04:58:35;20.00;61.00
76878;DHT22;65843;50.692;12.844;2023-04-01T04:59:36;20.00;60.90
76878;DHT22;65843;50.692;12.844;2023-04-01T05:00:37;20.00;61.00
76878;DHT22;65843;50.692;12.844;2023-04-01T05:01:38;20.00;60.90
76878;DHT22;65843;50.692;12.844;2023-04-01T05:02:39;20.00;60.90
76878;DHT22;65843;50.692;12.844;2023-04-01T05:03:41;20.00;60.90
76878;DHT22;65843;50.692;12.844;2023-04-01T05:04:42;20.00;60.90
76878;DHT22;65843;50.692;12.844;2023-04-01T05:05:49;20.00;60.80
76878;DHT22;65843;50.692;12.844;2023-04-01T05:06:50;20.00;61.00
76878;DHT22;65843;50.692;12.844;2023-04-01T05:07:52;20.00;61.00
76878;DHT22;65843;50.692;12.844;2023-04-01T05:08:53;20.00;60.90
76878;DHT22;65843;50.692;12.844;2023-04-01T05:09:54;20.00;60.60
76878;DHT22;65843;50.692;12.844;2023-04-01T05:10:55;20.00;60.70
76878;DHT22;65843;50.692;12.844;2023-04-01T05:11:55;20.00;60.60
76878;DHT22;65843;50.692;12.844;2023-04-01T05:12:57;20.00;60.90
76878;DHT22;65843;50.692;12.844;2023-04-01T05:13:58;20.00;60.90
76878;DHT22;65843;50.692;12.844;2023-04-01T05:14:59;20.00;60.70
76878;DHT22;65843;50.692;12.844;2023-04-01T05:16:00;20.00;60.30
76878;DHT22;65843;50.692;12.844;2023-04-01T05:17:01;20.00;61.00
76878;DHT22;65843;50.692;12.844;2023-04-01T05:18:02;20.00;60.70
76878;DHT22;65843;50.692;12.844;2023-04-01T05:19:02;20.00;60.60
76878;DHT22;65843;50.692;12.844;2023-04-01T05:20:03;20.00;60.50
76878;DHT22;65843;50.692;12.844;2023-04-01T05:21:06;20.00;60.70
76878;DHT22;65843;50.692;12.844;2023-04-01T05:22:07;20.00;60.30
76878;DHT22;65843;50.692;12.844;2023-04-01T05:23:08;20.00;61.10
76878;DHT22;65843;50.692;12.844;2023-04-01T05:24:09;20.00;60.50
76878;DHT22;65843;50.692;12.844;2023-04-01T05:25:10;20.00;60.30
76878;DHT22;65843;50.692;12.844;2023-04-01T05:26:12;20.00;59.70
76878;DHT22;65843;50.692;12.844;2023-04-01T05:27:13;19.90;60.70
76878;DHT22;65843;50.692;12.844;2023-04-01T05:28:14;20.00;60.60
76878;DHT22;65843;50.692;12.844;2023-04-01T05:29:15;20.00;61.10
76878;DHT22;65843;50.692;12.844;2023-04-01T05:30:16;20.00;61.20
76878;DHT22;65843;50.692;12.844;2023-04-01T05:31:17;19.90;61.00
76878;DHT22;65843;50.692;12.844;2023-04-01T05:32:18;20.00;61.10
76878;DHT22;65843;50.692;12.844;2023-04-01T05:33:19;20.00;60.80
76878;DHT22;65843;50.692;12.844;2023-04-01T05:34:19;20.00;60.40
76878;DHT22;65843;50.692;12.844;2023-04-01T05:35:20;20.00;59.60
76878;DHT22;65843;50.692;12.844;2023-04-01T05:36:21;20.00;59.80
76878;DHT22;65843;50.692;12.844;2023-04-01T05:37:22;20.00;59.60
76878;DHT22;65843;50.692;12.844;2023-04-01T05:38:23;19.90;58.90
76878;DHT22;65843;50.692;12.844;2023-04-01T05:39:24;19.90;58.60
76878;DHT22;65843;50.692;12.844;2023-04-01T05:40:25;19.90;58.70
76878;DHT22;65843;50.692;12.844;2023-04-01T05:41:26;19.90;58.80
76878;DHT22;65843;50.692;12.844;2023-04-01T05:42:27;19.90;58.40
76878;DHT22;65843;50.692;12.844;2023-04-01T05:43:28;19.80;58.50
76878;DHT22;65843;50.692;12.844;2023-04-01T05:44:30;19.80;58.50
76878;DHT22;65843;50.692;12.844;2023-04-01T05:45:31;19.80;58.60
76878;DHT22;65843;50.692;12.844;2023-04-01T05:46:32;19.80;58.70
76878;DHT22;65843;50.692;12.844;2023-04-01T05:47:33;19.80;58.70
76878;DHT22;65843;50.692;12.844;2023-04-01T05:48:34;19.70;58.60
76878;DHT22;65843;50.692;12.844;2023-04-01T05:49:38;19.70;58.70
76878;DHT22;65843;50.692;12.844;2023-04-01T05:50:39;19.70;58.70
76878;DHT22;65843;50.692;12.844;2023-04-01T05:51:41;19.70;58.70
76878;DHT22;65843;50.692;12.844;2023-04-01T05:52:41;19.70;58.70
76878;DHT22;65843;50.692;12.844;2023-04-01T05:53:42;19.70;58.70
76878;DHT22;65843;50.692;12.844;2023-04-01T05:54:43;19.70;58.60
76878;DHT22;65843;50.692;12.844;2023-04-01T05:55:44;19.70;58.50
76878;DHT22;65843;50.692;12.844;2023-04-01T05:56:45;19.70;58.30
76878;DHT22;65843;50.692;12.844;2023-04-01T05:57:46;19.70;58.50
76878;DHT22;65843;50.692;12.844;2023-04-01T05:58:50;19.70;58.30
76878;DHT22;65843;50.692;12.844;2023-04-01T05:59:51;19.70;58.30
76878;DHT22;65843;50.692;12.844;2023-04-01T06:00:53;19.70;58.30
76878;DHT22;65843;50.692;12.844;2023-04-01T06:02:00;19.70;58.10
76878;DHT22;65843;50.692;12.844;2023-04-01T06:03:01;19.70;58.00
76878;DHT22;65843;50.692;12.844;2023-04-01T06:04:02;19.70;58.00
76878;DHT22;65843;50.692;12.844;2023-04-01T06:05:19;19.70;58.00
76878;DHT22;65843;50.692;12.844;2023-04-01T06:06:24;19.70;58.10
76878;DHT22;65843;50.692;12.844;2023-04-01T06:07:25;19.70;58.00
76878;DHT22;65843;50.692;12.844;2023-04-01T06:08:28;19.70;58.00
76878;DHT22;65843;50.692;12.844;2023-04-01T06:09:30;19.70;58.30
76878;DHT22;65843;50.692;12.844;2023-04-01T06:15:36;19.70;58.60
76878;DHT22;65843;50.692;12.844;2023-04-01T06:18:54;19.70;58.40
76878;DHT22;65843;50.692;12.844;2023-04-01T06:21:54;19.70;58.40
76878;DHT22;65843;50.692;12.844;2023-04-01T06:22:38;19.70;58.40
76878;DHT22;65843;50.692;12.844;2023-04-01T06:35:02;19.70;58.00
76878;DHT22;65843;50.692;12.844;2023-04-01T06:42:35;19.50;58.10
76878;DHT22;65843;50.692;12.844;2023-04-01T06:46:06;19.50;58.20
76878;DHT22;65843;50.692;12.844;2023-04-01T06:56:26;19.50;57.70
76878;DHT22;65843;50.692;12.844;2023-04-01T06:57:33;19.50;57.70
76878;DHT22;65843;50.692;12.844;2023-04-01T06:59:45;19.50;57.60
76878;DHT22;65843;50.692;12.844;2023-04-01T07:00:49;19.40;57.60
76878;DHT22;65843;50.692;12.844;2023-04-01T07:01:58;19.40;57.60
76878;DHT22;65843;50.692;12.844;2023-04-01T07:04:15;19.40;57.60
76878;DHT22;65843;50.692;12.844;2023-04-01T07:05:17;19.40;57.50
76878;DHT22;65843;50.692;12.844;2023-04-01T07:06:28;19.40;57.50
76878;DHT22;65843;50.692;12.844;2023-04-01T07:07:38;19.40;57.40
76878;DHT22;65843;50.692;12.844;2023-04-01T07:08:42;19.40;57.40
76878;DHT22;65843;50.692;12.844;2023-04-01T07:09:48;19.40;57.40
76878;DHT22;65843;50.692;12.844;2023-04-01T07:10:53;19.40;57.40
76878;DHT22;65843;50.692;12.844;2023-04-01T07:11:56;19.40;57.40
76878;DHT22;65843;50.692;12.844;2023-04-01T07:13:00;19.40;57.50
76878;DHT22;65843;50.692;12.844;2023-04-01T07:14:04;19.40;57.30
76878;DHT22;65843;50.692;12.844;2023-04-01T07:17:21;19.30;57.30
76878;DHT22;65843;50.692;12.844;2023-04-01T07:18:34;19.30;57.30
76878;DHT22;65843;50.692;12.844;2023-04-01T07:19:50;19.30;57.30
76878;DHT22;65843;50.692;12.844;2023-04-01T07:20:53;19.30;57.30
76878;DHT22;65843;50.692;12.844;2023-04-01T07:21:56;19.30;57.30
76878;DHT22;65843;50.692;12.844;2023-04-01T07:22:59;19.30;57.20
76878;DHT22;65843;50.692;12.844;2023-04-01T07:24:04;19.30;57.20
76878;DHT22;65843;50.692;12.844;2023-04-01T07:25:16;19.30;57.20
76878;DHT22;65843;50.692;12.844;2023-04-01T07:26:22;19.30;57.20
76878;DHT22;65843;50.692;12.844;2023-04-01T07:27:23;19.30;57.20
76878;DHT22;65843;50.692;12.844;2023-04-01T07:28:24;19.30;57.20
76878;DHT22;65843;50.692;12.844;2023-04-01T07:29:27;19.30;57.10
76878;DHT22;65843;50.692;12.844;2023-04-01T07:30:29;19.30;57.20
76878;DHT22;65843;50.692;12.844;2023-04-01T07:31:41;19.30;57.10
76878;DHT22;65843;50.692;12.844;2023-04-01T07:34:10;19.30;57.10
76878;DHT22;65843;50.692;12.844;2023-04-01T07:38:41;19.30;57.10